| time (UTC) | temp C | wind direction | speed KPH | gust KPH | rain 1hr cm | rain 24hr cm | rain mn cm | humidity % | barometer mb |
| 20260509214117 | 24 | 258 | 6.4 | 8.0 | 0.00 | 0.00 | 0.00 | 77 | 1016.5 |
| 20260509213613 | 25 | 249 | 3.2 | 3.2 | 0.00 | 0.00 | 0.00 | 77 | 1016.3 |
| 20260509213110 | 25 | 222 | 6.4 | 8.0 | 0.00 | 0.00 | 0.00 | 76 | 1016.3 |
| 20260509212607 | 25 | 262 | 9.7 | 12.9 | 0.00 | 0.00 | 0.00 | 75 | 1016.3 |
| 20260509212104 | 25 | 258 | 9.7 | 11.3 | 0.00 | 0.00 | 0.00 | 78 | 1016.3 |
| 20260509211600 | 25 | 258 | 4.8 | 9.7 | 0.00 | 0.00 | 0.00 | 77 | 1016.4 |
| 20260509211057 | 25 | 258 | 1.6 | 1.6 | 0.00 | 0.00 | 0.00 | 76 | 1016.3 |
| 20260509210553 | 24 | 258 | 4.8 | 4.8 | 0.00 | 0.00 | 0.00 | 75 | 1016.4 |
| 20260509210050 | 25 | 258 | 3.2 | 3.2 | 0.00 | 0.00 | 0.00 | 77 | 1016.3 |
| 20260509205544 | 25 | 258 | 6.4 | 11.3 | 0.00 | 0.00 | 0.00 | 77 | 1016.4 |
| 20260509205040 | 25 | 258 | 0.0 | 1.6 | 0.00 | 0.00 | 0.00 | 77 | 1016.3 |
| 20260509204536 | 25 | 258 | 3.2 | 3.2 | 0.00 | 0.00 | 0.00 | 77 | 1016.3 |
| 20260509204032 | 25 | 258 | 1.6 | 3.2 | 0.00 | 0.00 | 0.00 | 75 | 1016.4 |
| 20260509203528 | 25 | 258 | 3.2 | 4.8 | 0.00 | 0.00 | 0.00 | 75 | 1016.4 |
| 20260509203027 | 25 | 258 | 1.6 | 1.6 | 0.00 | 0.00 | 0.00 | 75 | 1016.4 |
| 20260509202526 | 25 | 258 | 1.6 | 1.6 | 0.00 | 0.00 | 0.00 | 77 | 1016.4 |
| 20260509202022 | 25 | 258 | 8.0 | 9.7 | 0.00 | 0.00 | 0.00 | 76 | 1016.6 |
| 20260509201517 | 25 | 258 | 1.6 | 1.6 | 0.00 | 0.00 | 0.00 | 79 | 1016.5 |
| 20260509201015 | 25 | 258 | 3.2 | 4.8 | 0.00 | 0.00 | 0.00 | 78 | 1016.6 |
| 20260509200510 | 25 | 258 | 1.6 | 1.6 | 0.00 | 0.00 | 0.00 | 77 | 1016.6 |
| 20260509200006 | 24 | 258 | 6.4 | 11.3 | 0.00 | 0.00 | 0.00 | 79 | 1016.6 |
| 20260509195501 | 25 | 258 | 3.2 | 3.2 | 0.00 | 0.00 | 0.00 | 78 | 1016.4 |
| 20260509194956 | 25 | 258 | 4.8 | 4.8 | 0.00 | 0.00 | 0.00 | 76 | 1016.6 |
| 20260509194451 | 26 | 258 | 4.8 | 8.0 | 0.00 | 0.00 | 0.00 | 75 | 1016.7 |
| 20260509193948 | 26 | 258 | 4.8 | 8.0 | 0.00 | 0.00 | 0.00 | 73 | 1016.6 |
| 20260509193443 | 27 | 258 | 6.4 | 8.0 | 0.00 | 0.00 | 0.00 | 71 | 1016.6 |
| 20260509192939 | 26 | 258 | 0.0 | 1.6 | 0.00 | 0.00 | 0.00 | 73 | 1016.5 |
| 20260509192436 | 26 | 258 | 1.6 | 1.6 | 0.00 | 0.00 | 0.00 | 75 | 1016.7 |
| 20260509191931 | 26 | 258 | 3.2 | 3.2 | 0.00 | 0.00 | 0.00 | 73 | 1016.6 |
| 20260509191426 | 26 | 258 | 4.8 | 4.8 | 0.00 | 0.00 | 0.00 | 72 | 1016.9 |
| 20260509190923 | 26 | 258 | 1.6 | 1.6 | 0.00 | 0.00 | 0.00 | 69 | 1016.9 |
| 20260509190420 | 26 | 258 | 1.6 | 1.6 | 0.00 | 0.00 | 0.00 | 73 | 1016.7 |
| 20260509185918 | 27 | 258 | 3.2 | 3.2 | 0.00 | 0.00 | 0.00 | 70 | 1016.7 |
| 20260509185415 | 25 | 258 | 6.4 | 8.0 | 0.00 | 0.00 | 0.00 | 74 | 1016.6 |
| 20260509184911 | 26 | 258 | 3.2 | 3.2 | 0.00 | 0.00 | 0.00 | 74 | 1016.7 |
| 20260509184409 | 26 | 258 | 4.8 | 4.8 | 0.00 | 0.00 | 0.00 | 70 | 1016.6 |
| 20260509183905 | 26 | 258 | 1.6 | 1.6 | 0.00 | 0.00 | 0.00 | 66 | 1016.7 |
| 20260509183354 | 26 | 258 | 0.0 | 0.0 | 0.00 | 0.00 | 0.00 | 69 | 1016.9 |
| 20260509182850 | 27 | 258 | 3.2 | 3.2 | 0.00 | 0.00 | 0.00 | 67 | 1017.0 |
| 20260509182347 | 28 | 258 | 3.2 | 4.8 | 0.00 | 0.00 | 0.00 | 66 | 1017.0 |
| 20260509181845 | 27 | 258 | 3.2 | 4.8 | 0.00 | 0.00 | 0.00 | 67 | 1017.1 |
| 20260509181342 | 26 | 258 | 1.6 | 1.6 | 0.00 | 0.00 | 0.00 | 68 | 1017.3 |
| 20260509180839 | 26 | 258 | 1.6 | 1.6 | 0.00 | 0.00 | 0.00 | 67 | 1017.3 |
| 20260509180335 | 27 | 258 | 3.2 | 4.8 | 0.00 | 0.00 | 0.00 | 67 | 1017.5 |
| 20260509175832 | 28 | 258 | 1.6 | 1.6 | 0.00 | 0.00 | 0.00 | 68 | 1017.3 |
| 20260509175328 | 27 | 258 | 8.0 | 12.9 | 0.00 | 0.00 | 0.00 | 67 | 1017.3 |
| 20260509174824 | 26 | 258 | 3.2 | 4.8 | 0.00 | 0.00 | 0.00 | 69 | 1017.6 |
| 20260509174320 | 27 | 258 | 1.6 | 1.6 | 0.00 | 0.00 | 0.00 | 68 | 1017.7 |
| 20260509173816 | 28 | 258 | 0.0 | 1.6 | 0.00 | 0.00 | 0.00 | 63 | 1017.8 |
| 20260509173312 | 28 | 258 | 1.6 | 1.6 | 0.00 | 0.00 | 0.00 | 51 | 1018.0 |
| 20260509172808 | 28 | 258 | 0.0 | 0.0 | 0.00 | 0.00 | 0.00 | 54 | 1017.7 |
| 20260509172306 | 28 | 258 | 0.0 | 0.0 | 0.00 | 0.00 | 0.00 | 52 | 1017.8 |
| 20260509171801 | 28 | 258 | 3.2 | 4.8 | 0.00 | 0.00 | 0.00 | 53 | 1018.1 |
| 20260509171256 | 28 | 258 | 3.2 | 3.2 | 0.00 | 0.00 | 0.00 | 53 | 1018.0 |
| 20260509170753 | 28 | 258 | 1.6 | 3.2 | 0.00 | 0.00 | 0.00 | 50 | 1018.0 |
| 20260509170249 | 28 | 258 | 9.7 | 12.9 | 0.00 | 0.00 | 0.00 | 46 | 1018.1 |
| 20260509165748 | 28 | 258 | 4.8 | 4.8 | 0.00 | 0.00 | 0.00 | 49 | 1018.2 |
| 20260509165244 | 28 | 258 | 3.2 | 3.2 | 0.00 | 0.00 | 0.00 | 63 | 1018.3 |
| 20260509164740 | 28 | 258 | 4.8 | 4.8 | 0.00 | 0.00 | 0.00 | 60 | 1018.3 |
| 20260509164235 | 28 | 258 | 0.0 | 0.0 | 0.00 | 0.00 | 0.00 | 53 | 1018.5 |
| 20260509163733 | 28 | 258 | 1.6 | 1.6 | 0.00 | 0.00 | 0.00 | 58 | 1018.3 |
| 20260509163229 | 27 | 258 | 4.8 | 4.8 | 0.00 | 0.00 | 0.00 | 56 | 1018.3 |
| 20260509162727 | 27 | 258 | 4.8 | 8.0 | 0.00 | 0.00 | 0.00 | 57 | 1018.2 |
| 20260509162222 | 28 | 258 | 4.8 | 8.0 | 0.00 | 0.00 | 0.00 | 56 | 1018.4 |
| 20260509161717 | 27 | 258 | 1.6 | 3.2 | 0.00 | 0.00 | 0.00 | 55 | 1018.5 |
| 20260509161214 | 28 | 258 | 8.0 | 9.7 | 0.00 | 0.00 | 0.00 | 58 | 1018.5 |
| 20260509160709 | 27 | 258 | 1.6 | 3.2 | 0.00 | 0.00 | 0.00 | 57 | 1018.4 |
| 20260509160206 | 27 | 258 | 3.2 | 3.2 | 0.00 | 0.00 | 0.00 | 60 | 1018.5 |
| 20260509155701 | 27 | 258 | 1.6 | 3.2 | 0.00 | 0.00 | 0.00 | 65 | 1018.5 |
| 20260509155158 | 27 | 258 | 3.2 | 3.2 | 0.00 | 0.00 | 0.00 | 57 | 1018.5 |
| 20260509154654 | 27 | 258 | 4.8 | 4.8 | 0.00 | 0.00 | 0.00 | 62 | 1018.9 |
| 20260509154151 | 27 | 258 | 3.2 | 4.8 | 0.00 | 0.00 | 0.00 | 60 | 1018.6 |
| 20260509153648 | 28 | 258 | 1.6 | 1.6 | 0.00 | 0.00 | 0.00 | 60 | 1018.7 |
| 20260509153145 | 27 | 258 | 0.0 | 1.6 | 0.00 | 0.00 | 0.00 | 61 | 1019.3 |
| 20260509152640 | 27 | 258 | 3.2 | 8.0 | 0.00 | 0.00 | 0.00 | 58 | 1019.0 |
| 20260509152138 | 27 | 258 | 1.6 | 1.6 | 0.00 | 0.00 | 0.00 | 66 | 1019.0 |
| 20260509151634 | 26 | 258 | 1.6 | 3.2 | 0.00 | 0.00 | 0.00 | 64 | 1019.0 |
| 20260509151132 | 26 | 258 | 6.4 | 9.7 | 0.00 | 0.00 | 0.00 | 62 | 1018.9 |
| 20260509150630 | 27 | 258 | 3.2 | 4.8 | 0.00 | 0.00 | 0.00 | 62 | 1019.2 |
| 20260509150128 | 27 | 258 | 1.6 | 3.2 | 0.00 | 0.00 | 0.00 | 64 | 1019.1 |
| 20260509145624 | 27 | 258 | 8.0 | 11.3 | 0.00 | 0.00 | 0.00 | 62 | 1019.1 |
| 20260509145119 | 27 | 258 | 1.6 | 3.2 | 0.00 | 0.00 | 0.00 | 65 | 1019.3 |
| 20260509144616 | 27 | 258 | 6.4 | 8.0 | 0.00 | 0.00 | 0.00 | 64 | 1019.1 |
| 20260509144113 | 26 | 258 | 6.4 | 9.7 | 0.00 | 0.00 | 0.00 | 65 | 1019.2 |
| 20260509143610 | 26 | 258 | 3.2 | 3.2 | 0.00 | 0.00 | 0.00 | 66 | 1019.0 |
| 20260509143108 | 26 | 258 | 6.4 | 9.7 | 0.00 | 0.00 | 0.00 | 66 | 1019.4 |
| 20260509142602 | 26 | 258 | 4.8 | 9.7 | 0.00 | 0.00 | 0.00 | 65 | 1019.2 |
| 20260509142059 | 26 | 258 | 4.8 | 8.0 | 0.00 | 0.00 | 0.00 | 64 | 1019.2 |
| 20260509141555 | 26 | 258 | 6.4 | 9.7 | 0.00 | 0.00 | 0.00 | 64 | 1019.1 |
| 20260509141052 | 26 | 258 | 3.2 | 4.8 | 0.00 | 0.00 | 0.00 | 66 | 1019.1 |
| 20260509140549 | 26 | 258 | 1.6 | 3.2 | 0.00 | 0.00 | 0.00 | 67 | 1019.1 |
| 20260509140047 | 26 | 258 | 3.2 | 4.8 | 0.00 | 0.00 | 0.00 | 67 | 1019.1 |
| 20260509135543 | 26 | 258 | 6.4 | 9.7 | 0.00 | 0.00 | 0.00 | 67 | 1019.0 |
| 20260509135041 | 26 | 258 | 8.0 | 9.7 | 0.00 | 0.00 | 0.00 | 65 | 1019.0 |
| 20260509134538 | 26 | 258 | 3.2 | 4.8 | 0.00 | 0.00 | 0.00 | 64 | 1019.1 |
| 20260509134035 | 26 | 260 | 4.8 | 4.8 | 0.00 | 0.00 | 0.00 | 65 | 1019.1 |
| 20260509133531 | 26 | 269 | 1.6 | 3.2 | 0.00 | 0.00 | 0.00 | 65 | 1019.0 |
| 20260509133024 | 25 | 276 | 1.6 | 1.6 | 0.00 | 0.00 | 0.00 | 65 | 1019.1 |
| 20260509132522 | 25 | 268 | 6.4 | 11.3 | 0.00 | 0.00 | 0.00 | 62 | 1018.9 |
| 20260509132020 | 25 | 252 | 4.8 | 4.8 | 0.00 | 0.00 | 0.00 | 67 | 1019.1 |
| 20260509131516 | 25 | 231 | 11.3 | 14.5 | 0.00 | 0.00 | 0.00 | 64 | 1018.9 |
| 20260509131013 | 25 | 265 | 3.2 | 4.8 | 0.00 | 0.00 | 0.00 | 65 | 1019.1 |
| 20260509130508 | 25 | 236 | 4.8 | 8.0 | 0.00 | 0.00 | 0.00 | 66 | 1018.7 |
| 20260509130006 | 25 | 238 | 3.2 | 3.2 | 0.00 | 0.00 | 0.00 | 67 | 1018.9 |
| 20260509125502 | 25 | 282 | 1.6 | 3.2 | 0.00 | 0.00 | 0.00 | 67 | 1018.9 |
| 20260509124958 | 26 | 254 | 1.6 | 3.2 | 0.00 | 0.00 | 0.00 | 66 | 1018.9 |
| 20260509124455 | 25 | 290 | 0.0 | 1.6 | 0.00 | 0.00 | 0.00 | 68 | 1018.9 |
| 20260509123952 | 25 | 289 | 0.0 | 0.0 | 0.00 | 0.00 | 0.00 | 71 | 1018.9 |
| 20260509123450 | 24 | 288 | 0.0 | 0.0 | 0.00 | 0.00 | 0.00 | 73 | 1018.9 |
| 20260509122945 | 24 | 288 | 0.0 | 0.0 | 0.00 | 0.00 | 0.00 | 71 | 1018.4 |
| 20260509122443 | 24 | 292 | 1.6 | 1.6 | 0.00 | 0.00 | 0.00 | 70 | 1018.4 |
| 20260509121939 | 23 | 293 | 1.6 | 1.6 | 0.00 | 0.00 | 0.00 | 72 | 1018.5 |
| 20260509121436 | 24 | 293 | 1.6 | 1.6 | 0.00 | 0.00 | 0.00 | 72 | 1018.6 |
| 20260509120934 | 24 | 293 | 1.6 | 3.2 | 0.00 | 0.00 | 0.00 | 74 | 1018.3 |
| 20260509120432 | 23 | 295 | 1.6 | 1.6 | 0.00 | 0.00 | 0.00 | 72 | 1018.3 |
| 20260509115930 | 23 | 314 | 0.0 | 0.0 | 0.00 | 0.00 | 0.00 | 77 | 1018.1 |
| 20260509115427 | 22 | 317 | 1.6 | 3.2 | 0.00 | 0.00 | 0.00 | 76 | 1018.2 |
| 20260509114924 | 22 | 297 | 1.6 | 1.6 | 0.00 | 0.00 | 0.00 | 77 | 1018.2 |
| 20260509114423 | 22 | 314 | 3.2 | 3.2 | 0.00 | 0.00 | 0.00 | 75 | 1018.2 |
| 20260509113922 | 22 | 305 | 1.6 | 1.6 | 0.00 | 0.00 | 0.00 | 75 | 1018.3 |
| 20260509113419 | 22 | 298 | 0.0 | 1.6 | 0.00 | 0.00 | 0.00 | 74 | 1018.1 |
| 20260509112915 | 22 | 296 | 0.0 | 1.6 | 0.00 | 0.00 | 0.00 | 76 | 1018.4 |
| 20260509112412 | 21 | 289 | 0.0 | 1.6 | 0.00 | 0.00 | 0.00 | 78 | 1018.0 |
| 20260509111904 | 21 | 290 | 0.0 | 0.0 | 0.00 | 0.00 | 0.00 | 77 | 1018.3 |
| 20260509111400 | 21 | 333 | 1.6 | 1.6 | 0.00 | 0.00 | 0.00 | 80 | 1018.2 |
| 20260509110858 | 20 | 297 | 0.0 | 0.0 | 0.00 | 0.00 | 0.00 | 83 | 1018.5 |
| 20260509110354 | 20 | 298 | 0.0 | 1.6 | 0.00 | 0.00 | 0.00 | 85 | 1018.3 |
| 20260509105853 | 20 | 320 | 1.6 | 1.6 | 0.00 | 0.00 | 0.00 | 82 | 1018.1 |
| 20260509105351 | 19 | 308 | 0.0 | 1.6 | 0.00 | 0.00 | 0.00 | 86 | 1018.1 |
| 20260509104847 | 19 | 312 | 1.6 | 1.6 | 0.00 | 0.00 | 0.00 | 83 | 1018.1 |
| 20260509104343 | 18 | 324 | 1.6 | 1.6 | 0.00 | 0.00 | 0.00 | 85 | 1018.0 |
| 20260509103841 | 18 | 297 | 0.0 | 0.0 | 0.00 | 0.00 | 0.00 | 89 | 1017.9 |
| 20260509103338 | 17 | 307 | 0.0 | 0.0 | 0.00 | 0.00 | 0.00 | 88 | 1017.9 |
| 20260509102837 | 17 | 318 | 0.0 | 0.0 | 0.00 | 0.00 | 0.00 | 92 | 1017.9 |
| 20260509102334 | 17 | 327 | 1.6 | 1.6 | 0.00 | 0.00 | 0.00 | 92 | 1017.9 |
| 20260509101830 | 17 | 322 | 1.6 | 1.6 | 0.00 | 0.00 | 0.00 | 92 | 1018.0 |
| 20260509101326 | 17 | 318 | 1.6 | 1.6 | 0.00 | 0.00 | 0.00 | 92 | 1017.7 |
| 20260509100824 | 17 | 307 | 1.6 | 1.6 | 0.00 | 0.00 | 0.00 | 92 | 1017.6 |
| 20260509100321 | 17 | 313 | 0.0 | 0.0 | 0.00 | 0.00 | 0.00 | 92 | 1017.6 |
| 20260509095817 | 17 | 312 | 1.6 | 1.6 | 0.00 | 0.00 | 0.00 | 92 | 1017.4 |
| 20260509095315 | 17 | 310 | 1.6 | 1.6 | 0.00 | 0.00 | 0.00 | 92 | 1017.5 |
| 20260509094812 | 17 | 311 | 1.6 | 3.2 | 0.00 | 0.00 | 0.00 | 91 | 1017.5 |
| 20260509094309 | 17 | 318 | 1.6 | 1.6 | 0.00 | 0.00 | 0.00 | 91 | 1017.4 |
| 20260509093806 | 17 | 321 | 0.0 | 1.6 | 0.00 | 0.00 | 0.00 | 91 | 1017.3 |
| 20260509093303 | 17 | 337 | 1.6 | 1.6 | 0.00 | 0.00 | 0.00 | 90 | 1017.2 |
| 20260509092802 | 17 | 311 | 0.0 | 1.6 | 0.00 | 0.00 | 0.00 | 92 | 1017.1 |
| 20260509092259 | 17 | 312 | 0.0 | 1.6 | 0.00 | 0.00 | 0.00 | 92 | 1017.1 |
| 20260509091757 | 17 | 306 | 1.6 | 1.6 | 0.00 | 0.00 | 0.00 | 93 | 1017.0 |
| 20260509091254 | 17 | 311 | 0.0 | 1.6 | 0.00 | 0.00 | 0.00 | 93 | 1017.2 |
| 20260509090751 | 17 | 306 | 1.6 | 1.6 | 0.00 | 0.00 | 0.00 | 93 | 1017.1 |
| 20260509090248 | 17 | 309 | 0.0 | 1.6 | 0.00 | 0.00 | 0.00 | 93 | 1017.1 |
| 20260509085745 | 17 | 304 | 0.0 | 0.0 | 0.00 | 0.00 | 0.00 | 93 | 1016.6 |
| 20260509085243 | 17 | 302 | 0.0 | 0.0 | 0.00 | 0.00 | 0.00 | 93 | 1017.0 |
| 20260509084739 | 17 | 307 | 0.0 | 1.6 | 0.00 | 0.00 | 0.00 | 93 | 1017.0 |
| 20260509084236 | 17 | 316 | 0.0 | 0.0 | 0.00 | 0.00 | 0.00 | 93 | 1016.7 |
| 20260509083734 | 17 | 305 | 0.0 | 0.0 | 0.00 | 0.00 | 0.00 | 94 | 1016.9 |
| 20260509083231 | 17 | 308 | 0.0 | 0.0 | 0.00 | 0.00 | 0.00 | 94 | 1016.9 |
| 20260509082727 | 17 | 316 | 0.0 | 0.0 | 0.00 | 0.00 | 0.00 | 94 | 1017.0 |
| 20260509082224 | 17 | 308 | 0.0 | 1.6 | 0.00 | 0.00 | 0.00 | 94 | 1017.0 |
| 20260509081721 | 17 | 305 | 0.0 | 0.0 | 0.00 | 0.00 | 0.00 | 94 | 1016.7 |
| 20260509081218 | 17 | 323 | 0.0 | 0.0 | 0.00 | 0.00 | 0.00 | 94 | 1016.7 |
| 20260509080716 | 17 | 311 | 0.0 | 1.6 | 0.00 | 0.00 | 0.00 | 94 | 1016.9 |
| 20260509080214 | 17 | 310 | 0.0 | 1.6 | 0.00 | 0.00 | 0.00 | 95 | 1016.7 |
| 20260509075712 | 17 | 317 | 0.0 | 0.0 | 0.00 | 0.00 | 0.00 | 96 | 1016.9 |
| 20260509075209 | 17 | 316 | 0.0 | 0.0 | 0.00 | 0.00 | 0.00 | 96 | 1017.1 |
| 20260509074706 | 17 | 315 | 0.0 | 0.0 | 0.00 | 0.00 | 0.00 | 96 | 1016.6 |
| 20260509074203 | 17 | 314 | 0.0 | 0.0 | 0.00 | 0.00 | 0.00 | 95 | 1017.1 |
| 20260509073659 | 17 | 315 | 0.0 | 0.0 | 0.00 | 0.00 | 0.00 | 95 | 1016.7 |
| 20260509073156 | 17 | 317 | 0.0 | 1.6 | 0.00 | 0.00 | 0.00 | 95 | 1017.1 |
| 20260509072652 | 17 | 317 | 0.0 | 0.0 | 0.00 | 0.00 | 0.00 | 95 | 1017.0 |
| 20260509072149 | 17 | 316 | 0.0 | 0.0 | 0.00 | 0.00 | 0.00 | 95 | 1017.0 |
| 20260509071646 | 17 | 316 | 0.0 | 0.0 | 0.00 | 0.00 | 0.00 | 95 | 1017.3 |
| 20260509071143 | 17 | 318 | 1.6 | 1.6 | 0.00 | 0.00 | 0.00 | 95 | 1016.9 |
| 20260509070640 | 17 | 316 | 0.0 | 1.6 | 0.00 | 0.00 | 0.00 | 95 | 1017.2 |
| 20260509070136 | 17 | 316 | 0.0 | 0.0 | 0.00 | 0.00 | 0.00 | 95 | 1017.3 |
| 20260509065632 | 17 | 322 | 1.6 | 1.6 | 0.00 | 0.00 | 0.00 | 95 | 1017.0 |
| 20260509065128 | 17 | 318 | 0.0 | 0.0 | 0.00 | 0.00 | 0.00 | 95 | 1017.3 |
| 20260509064625 | 17 | 316 | 0.0 | 0.0 | 0.00 | 0.00 | 0.00 | 95 | 1017.1 |
| 20260509064118 | 17 | 318 | 1.6 | 1.6 | 0.00 | 0.00 | 0.00 | 95 | 1017.1 |
| 20260509063615 | 17 | 317 | 0.0 | 0.0 | 0.00 | 0.00 | 0.00 | 95 | 1016.9 |
| 20260509063111 | 17 | 318 | 1.6 | 1.6 | 0.00 | 0.00 | 0.00 | 95 | 1017.2 |
| 20260509062608 | 17 | 318 | 0.0 | 0.0 | 0.00 | 0.00 | 0.00 | 95 | 1017.1 |
| 20260509062105 | 17 | 318 | 0.0 | 0.0 | 0.00 | 0.00 | 0.00 | 95 | 1017.1 |
| 20260509061602 | 17 | 318 | 0.0 | 0.0 | 0.00 | 0.00 | 0.00 | 95 | 1017.3 |
| 20260509061059 | 17 | 318 | 1.6 | 1.6 | 0.00 | 0.00 | 0.00 | 94 | 1017.2 |
| 20260509060557 | 17 | 319 | 1.6 | 1.6 | 0.00 | 0.00 | 0.00 | 94 | 1017.2 |
| 20260509060052 | 18 | 318 | 0.0 | 1.6 | 0.00 | 0.00 | 0.00 | 94 | 1017.1 |
| 20260509055548 | 18 | 318 | 0.0 | 0.0 | 0.00 | 0.00 | 0.00 | 93 | 1017.3 |
| 20260509055044 | 18 | 322 | 0.0 | 0.0 | 0.00 | 0.00 | 0.00 | 93 | 1017.4 |
| 20260509054541 | 18 | 314 | 0.0 | 1.6 | 0.00 | 0.00 | 0.00 | 93 | 1017.5 |
| 20260509054039 | 17 | 316 | 0.0 | 1.6 | 0.00 | 0.00 | 0.00 | 94 | 1017.4 |
| 20260509053537 | 17 | 313 | 0.0 | 0.0 | 0.00 | 0.00 | 0.00 | 94 | 1017.7 |
| 20260509053033 | 17 | 314 | 0.0 | 0.0 | 0.00 | 0.00 | 0.00 | 94 | 1017.6 |
| 20260509052531 | 17 | 313 | 0.0 | 0.0 | 0.00 | 0.00 | 0.00 | 94 | 1017.5 |
| 20260509052030 | 17 | 314 | 0.0 | 1.6 | 0.00 | 0.00 | 0.00 | 94 | 1017.6 |
| 20260509051527 | 17 | 311 | 0.0 | 1.6 | 0.00 | 0.00 | 0.00 | 94 | 1017.9 |
| 20260509051024 | 17 | 312 | 0.0 | 0.0 | 0.00 | 0.00 | 0.00 | 94 | 1017.9 |
| 20260509050520 | 17 | 313 | 0.0 | 0.0 | 0.00 | 0.00 | 0.00 | 94 | 1017.7 |
| 20260509050011 | 17 | 310 | 0.0 | 0.0 | 0.00 | 0.00 | 0.00 | 94 | 1017.8 |
| 20260509045509 | 17 | 312 | 0.0 | 0.0 | 0.00 | 0.00 | 0.00 | 94 | 1018.1 |
| 20260509045006 | 17 | 331 | 1.6 | 1.6 | 0.00 | 0.00 | 0.00 | 94 | 1018.0 |
| 20260509044504 | 18 | 316 | 0.0 | 0.0 | 0.00 | 0.00 | 0.00 | 94 | 1017.9 |
| 20260509044000 | 18 | 320 | 1.6 | 1.6 | 0.00 | 0.00 | 0.00 | 94 | 1017.8 |
| 20260509043456 | 18 | 325 | 0.0 | 1.6 | 0.00 | 0.00 | 0.00 | 94 | 1017.8 |
| 20260509042951 | 18 | 318 | 1.6 | 1.6 | 0.00 | 0.00 | 0.00 | 94 | 1018.1 |
| 20260509042449 | 18 | 316 | 0.0 | 0.0 | 0.00 | 0.00 | 0.00 | 94 | 1018.1 |
| 20260509041945 | 18 | 315 | 0.0 | 1.6 | 0.00 | 0.00 | 0.00 | 94 | 1018.4 |
| 20260509041442 | 18 | 325 | 0.0 | 1.6 | 0.00 | 0.00 | 0.00 | 94 | 1018.4 |
| 20260509040940 | 18 | 319 | 0.0 | 0.0 | 0.00 | 0.00 | 0.00 | 94 | 1018.4 |
| 20260509040438 | 18 | 314 | 0.0 | 0.0 | 0.00 | 0.00 | 0.00 | 94 | 1018.6 |
| 20260509035934 | 18 | 314 | 0.0 | 0.0 | 0.00 | 0.03 | 0.03 | 94 | 1018.5 |
| 20260509035431 | 18 | 325 | 1.6 | 1.6 | 0.00 | 0.03 | 0.03 | 94 | 1018.6 |
| 20260509034928 | 18 | 315 | 1.6 | 1.6 | 0.00 | 0.03 | 0.03 | 94 | 1018.3 |
| 20260509034426 | 18 | 317 | 0.0 | 1.6 | 0.00 | 0.03 | 0.03 | 94 | 1018.6 |
| 20260509033922 | 18 | 314 | 0.0 | 1.6 | 0.00 | 0.03 | 0.03 | 94 | 1018.4 |
| 20260509033420 | 18 | 308 | 0.0 | 0.0 | 0.00 | 0.03 | 0.03 | 94 | 1018.6 |
| 20260509032916 | 18 | 311 | 0.0 | 0.0 | 0.00 | 0.03 | 0.03 | 94 | 1018.5 |
| 20260509032414 | 18 | 307 | 0.0 | 0.0 | 0.00 | 0.03 | 0.03 | 94 | 1018.6 |
| 20260509031911 | 18 | 309 | 0.0 | 0.0 | 0.00 | 0.03 | 0.03 | 94 | 1018.7 |
| 20260509031409 | 18 | 308 | 0.0 | 1.6 | 0.00 | 0.03 | 0.03 | 94 | 1018.5 |
| 20260509030906 | 18 | 310 | 0.0 | 0.0 | 0.00 | 0.03 | 0.03 | 94 | 1018.5 |
| 20260509030404 | 18 | 310 | 0.0 | 0.0 | 0.00 | 0.03 | 0.03 | 93 | 1018.5 |
| 20260509025901 | 18 | 310 | 0.0 | 1.6 | 0.00 | 0.03 | 0.03 | 93 | 1018.7 |
| 20260509025356 | 18 | 311 | 0.0 | 1.6 | 0.00 | 0.03 | 0.03 | 94 | 1018.9 |
| 20260509024851 | 18 | 308 | 0.0 | 0.0 | 0.00 | 0.03 | 0.03 | 94 | 1018.5 |
| 20260509024347 | 18 | 311 | 1.6 | 1.6 | 0.00 | 0.03 | 0.03 | 94 | 1018.5 |
| 20260509023845 | 18 | 310 | 0.0 | 0.0 | 0.00 | 0.03 | 0.03 | 94 | 1018.5 |
| 20260509023342 | 18 | 312 | 0.0 | 0.0 | 0.00 | 0.03 | 0.03 | 94 | 1018.5 |
| 20260509022838 | 18 | 325 | 0.0 | 0.0 | 0.00 | 0.03 | 0.03 | 95 | 1018.6 |
| 20260509022336 | 18 | 319 | 1.6 | 1.6 | 0.00 | 0.03 | 0.03 | 95 | 1018.5 |
| 20260509021832 | 18 | 322 | 1.6 | 1.6 | 0.00 | 0.03 | 0.03 | 95 | 1018.7 |
| 20260509021324 | 18 | 306 | 0.0 | 0.0 | 0.00 | 0.03 | 0.03 | 95 | 1018.3 |
| 20260509020822 | 18 | 312 | 0.0 | 0.0 | 0.00 | 0.03 | 0.03 | 95 | 1018.4 |
| 20260509020319 | 18 | 310 | 0.0 | 0.0 | 0.00 | 0.03 | 0.03 | 95 | 1018.6 |
| 20260509015817 | 18 | 308 | 0.0 | 0.0 | 0.00 | 0.03 | 0.03 | 95 | 1018.7 |
| 20260509015315 | 18 | 308 | 0.0 | 0.0 | 0.00 | 0.03 | 0.03 | 95 | 1018.4 |
| 20260509014811 | 18 | 309 | 0.0 | 0.0 | 0.00 | 0.03 | 0.03 | 95 | 1018.5 |
| 20260509014308 | 19 | 310 | 0.0 | 0.0 | 0.00 | 0.03 | 0.03 | 94 | 1018.6 |
| 20260509013804 | 19 | 313 | 0.0 | 1.6 | 0.00 | 0.03 | 0.03 | 94 | 1018.3 |
| 20260509013301 | 19 | 309 | 0.0 | 1.6 | 0.00 | 0.03 | 0.03 | 94 | 1018.4 |
| 20260509012757 | 19 | 307 | 0.0 | 0.0 | 0.00 | 0.03 | 0.03 | 94 | 1018.2 |
| 20260509012254 | 19 | 307 | 0.0 | 0.0 | 0.00 | 0.03 | 0.03 | 94 | 1018.4 |
| 20260509011751 | 20 | 307 | 0.0 | 0.0 | 0.00 | 0.03 | 0.03 | 93 | 1018.4 |
| 20260509011248 | 20 | 309 | 0.0 | 0.0 | 0.00 | 0.03 | 0.03 | 93 | 1018.2 |
| 20260509010746 | 20 | 309 | 0.0 | 0.0 | 0.00 | 0.03 | 0.03 | 93 | 1018.4 |
| 20260509010242 | 20 | 310 | 0.0 | 0.0 | 0.00 | 0.03 | 0.03 | 93 | 1018.1 |
| 20260509005740 | 20 | 309 | 0.0 | 0.0 | 0.00 | 0.03 | 0.03 | 92 | 1018.1 |
| 20260509005237 | 20 | 309 | 0.0 | 0.0 | 0.00 | 0.03 | 0.03 | 92 | 1017.9 |
| 20260509004732 | 20 | 310 | 0.0 | 1.6 | 0.00 | 0.03 | 0.03 | 92 | 1018.3 |
| 20260509004229 | 20 | 306 | 0.0 | 0.0 | 0.00 | 0.03 | 0.03 | 92 | 1018.1 |
| 20260509003727 | 20 | 306 | 0.0 | 0.0 | 0.00 | 0.03 | 0.03 | 91 | 1018.1 |
| 20260509003225 | 21 | 306 | 0.0 | 0.0 | 0.00 | 0.03 | 0.03 | 91 | 1017.9 |
| 20260509002722 | 21 | 307 | 0.0 | 0.0 | 0.00 | 0.03 | 0.03 | 92 | 1018.0 |
| 20260509002219 | 21 | 307 | 0.0 | 0.0 | 0.00 | 0.03 | 0.03 | 92 | 1017.9 |
| 20260509001717 | 21 | 307 | 0.0 | 0.0 | 0.00 | 0.03 | 0.03 | 92 | 1017.9 |
| 20260509001212 | 21 | 308 | 0.0 | 0.0 | 0.00 | 0.03 | 0.03 | 91 | 1017.7 |
| 20260509000705 | 21 | 309 | 0.0 | 0.0 | 0.00 | 0.03 | 0.03 | 91 | 1017.7 |
| 20260509000204 | 21 | 307 | 0.0 | 0.0 | 0.00 | 0.03 | 0.03 | 91 | 1017.5 |
| 20260508235658 | 21 | 305 | 0.0 | 0.0 | 0.00 | 0.03 | 0.03 | 91 | 1017.2 |
| 20260508235154 | 21 | 304 | 0.0 | 0.0 | 0.00 | 0.03 | 0.03 | 90 | 1017.4 |
| 20260508234652 | 21 | 306 | 0.0 | 0.0 | 0.00 | 0.03 | 0.03 | 90 | 1017.4 |
| 20260508234148 | 21 | 307 | 0.0 | 0.0 | 0.00 | 0.03 | 0.03 | 89 | 1017.3 |
| 20260508233643 | 21 | 304 | 0.0 | 0.0 | 0.00 | 0.03 | 0.03 | 89 | 1017.0 |
| 20260508233140 | 21 | 304 | 0.0 | 1.6 | 0.00 | 0.03 | 0.03 | 89 | 1017.2 |
| 20260508232637 | 21 | 308 | 0.0 | 0.0 | 0.00 | 0.03 | 0.03 | 87 | 1017.1 |
| 20260508232133 | 21 | 311 | 0.0 | 0.0 | 0.00 | 0.03 | 0.03 | 87 | 1017.0 |
| 20260508231631 | 21 | 299 | 0.0 | 0.0 | 0.00 | 0.03 | 0.03 | 87 | 1016.7 |
| 20260508231128 | 21 | 307 | 0.0 | 1.6 | 0.00 | 0.03 | 0.03 | 87 | 1016.7 |
| 20260508230624 | 21 | 304 | 0.0 | 0.0 | 0.00 | 0.03 | 0.03 | 87 | 1017.0 |
| 20260508230121 | 22 | 294 | 0.0 | 0.0 | 0.00 | 0.03 | 0.03 | 86 | 1016.9 |
| 20260508225619 | 22 | 293 | 0.0 | 1.6 | 0.00 | 0.03 | 0.03 | 87 | 1016.7 |
| 20260508225115 | 22 | 300 | 0.0 | 0.0 | 0.00 | 0.03 | 0.03 | 86 | 1016.9 |
| 20260508224613 | 22 | 287 | 0.0 | 0.0 | 0.00 | 0.03 | 0.03 | 87 | 1016.6 |
| 20260508224110 | 22 | 291 | 0.0 | 0.0 | 0.00 | 0.03 | 0.03 | 86 | 1016.6 |
| 20260508223608 | 22 | 315 | 3.2 | 4.8 | 0.00 | 0.03 | 0.03 | 86 | 1016.4 |
| 20260508223105 | 22 | 284 | 0.0 | 0.0 | 0.00 | 0.03 | 0.03 | 86 | 1016.5 |
| 20260508222602 | 22 | 295 | 1.6 | 3.2 | 0.00 | 0.03 | 0.03 | 86 | 1016.4 |
| 20260508222059 | 22 | 305 | 1.6 | 1.6 | 0.00 | 0.03 | 0.03 | 84 | 1016.2 |
| 20260508221555 | 22 | 351 | 1.6 | 3.2 | 0.00 | 0.03 | 0.03 | 84 | 1016.3 |
| 20260508221051 | 22 | 316 | 1.6 | 1.6 | 0.00 | 0.03 | 0.03 | 84 | 1016.2 |
| 20260508220548 | 23 | 310 | 0.0 | 1.6 | 0.00 | 0.03 | 0.03 | 83 | 1015.9 |
| 20260508220044 | 23 | 316 | 0.0 | 1.6 | 0.00 | 0.03 | 0.03 | 83 | 1016.0 |
| 20260508215541 | 23 | 284 | 3.2 | 4.8 | 0.00 | 0.03 | 0.03 | 82 | 1016.0 |
| 20260508215038 | 23 | 311 | 4.8 | 8.0 | 0.00 | 0.03 | 0.03 | 81 | 1016.1 |
| 20260508214536 | 23 | 320 | 0.0 | 1.6 | 0.00 | 0.03 | 0.03 | 81 | 1016.2 |